Time;durP1;ratioP1;P1;durP2;ratioP2;P2;SDS_P1;SDS_P2;PMS_P1;PMS_P2;Temp;Humidity;BMP_temperature;BMP_pressure;BME280_temperature;BME280_humidity;BME280_pressure;Samples;Min_cycle;Max_cycle;Signal;HPM_P1;HPM_P2
2022/12/04 00:02:19;;;;;;;55.55;32.75;;;;;;;;;;5044188;28;20059;-69
2022/12/04 00:04:45;;;;;;;56.85;33.08;;;;;;;;;;5043251;28;20052;-67
2022/12/04 00:07:11;;;;;;;58.30;33.50;;;;;;;;;;5044212;28;20405;-69
2022/12/04 00:09:37;;;;;;;57.50;33.22;;;;;;;;;;5045058;28;20042;-67
2022/12/04 00:12:04;;;;;;;55.70;32.03;;;;;;;;;;5046810;28;20059;-69
2022/12/04 00:14:30;;;;;;;54.97;32.22;;;;;;;;;;5044899;28;20041;-70
2022/12/04 00:16:56;;;;;;;57.03;33.92;;;;;;;;;;5040035;28;20056;-70
2022/12/04 00:19:22;;;;;;;55.20;32.08;;;;;;;;;;5039369;28;20044;-69
2022/12/04 00:21:49;;;;;;;59.60;34.22;;;;;;;;;;5041592;28;20067;-68
2022/12/04 00:24:15;;;;;;;62.25;34.55;;;;;;;;;;5043411;28;20052;-68
2022/12/04 00:26:41;;;;;;;57.80;33.05;;;;;;;;;;5043173;28;20119;-69
2022/12/04 00:29:07;;;;;;;59.33;34.10;;;;;;;;;;5044288;28;20053;-69
2022/12/04 00:31:33;;;;;;;56.17;33.95;;;;;;;;;;5042052;28;20427;-69
2022/12/04 00:34:00;;;;;;;59.33;33.65;;;;;;;;;;5043721;28;20049;-69
2022/12/04 00:36:27;;;;;;;57.08;34.05;;;;;;;;;;5028327;28;20682;-68
2022/12/04 00:38:54;;;;;;;58.67;33.45;;;;;;;;;;5028242;28;20087;-68
2022/12/04 00:41:21;;;;;;;59.30;33.33;;;;;;;;;;5029306;28;20045;-68
2022/12/04 00:43:47;;;;;;;59.20;32.22;;;;;;;;;;5040174;28;20052;-68
2022/12/04 00:46:14;;;;;;;56.75;33.75;;;;;;;;;;5043589;28;20044;-68
2022/12/04 00:48:40;;;;;;;61.45;34.70;;;;;;;;;;5044758;28;20087;-70
2022/12/04 00:51:07;;;;;;;56.05;32.17;;;;;;;;;;5043434;28;20052;-69
2022/12/04 00:53:33;;;;;;;58.40;33.58;;;;;;;;;;5038912;28;20041;-70
2022/12/04 00:56:03;;;;;;;59.83;34.63;;;;;;;;;;5042159;28;20056;-70
2022/12/04 00:58:29;;;;;;;59.05;34.22;;;;;;;;;;5042839;28;20037;-69
2022/12/04 01:01:01;;;;;;;63.15;34.00;;;;;;;;;;5044390;28;20102;-68
2022/12/04 01:03:27;;;;;;;62.08;35.15;;;;;;;;;;5039696;28;20044;-67
2022/12/04 01:05:53;;;;;;;57.60;34.67;;;;;;;;;;5042450;28;20142;-71
2022/12/04 01:08:19;;;;;;;56.33;33.80;;;;;;;;;;5043256;28;20084;-68
2022/12/04 01:10:45;;;;;;;61.53;33.05;;;;;;;;;;5042327;28;20045;-69
2022/12/04 01:13:11;;;;;;;58.22;33.00;;;;;;;;;;5044338;28;20037;-68
2022/12/04 01:15:38;;;;;;;62.50;34.53;;;;;;;;;;5043492;28;20049;-69
2022/12/04 01:18:04;;;;;;;59.42;33.67;;;;;;;;;;5042821;28;20063;-69
2022/12/04 01:20:30;;;;;;;59.35;34.03;;;;;;;;;;5043179;28;20427;-68
2022/12/04 01:22:56;;;;;;;60.90;34.88;;;;;;;;;;5037914;28;20048;-69
2022/12/04 01:25:22;;;;;;;58.17;34.60;;;;;;;;;;5037836;28;20049;-70
2022/12/04 01:27:48;;;;;;;59.03;34.38;;;;;;;;;;5039635;28;20044;-69
2022/12/04 01:30:14;;;;;;;56.50;33.00;;;;;;;;;;5041137;28;20072;-68
2022/12/04 01:32:40;;;;;;;55.58;34.03;;;;;;;;;;5040508;28;20045;-68
2022/12/04 01:35:06;;;;;;;58.20;34.30;;;;;;;;;;5041938;28;20423;-67
2022/12/04 01:37:32;;;;;;;62.33;34.78;;;;;;;;;;5041564;28;20396;-68
2022/12/04 01:39:58;;;;;;;61.80;35.83;;;;;;;;;;5042264;28;20051;-69
2022/12/04 01:42:25;;;;;;;57.50;34.28;;;;;;;;;;5041752;28;20087;-67
2022/12/04 01:45:09;;;;;;;60.47;34.22;;;;;;;;;;5040893;28;20056;-70
2022/12/04 01:47:35;;;;;;;60.38;34.63;;;;;;;;;;5046491;28;20431;-68
2022/12/04 01:50:01;;;;;;;60.28;34.45;;;;;;;;;;5046117;28;20052;-69
2022/12/04 01:52:27;;;;;;;62.45;35.88;;;;;;;;;;5027528;28;20045;-69
2022/12/04 01:54:56;;;;;;;62.83;35.88;;;;;;;;;;5048851;28;20040;-69
2022/12/04 01:57:24;;;;;;;60.45;34.15;;;;;;;;;;5044648;28;20045;-69
2022/12/04 01:59:52;;;;;;;64.55;36.25;;;;;;;;;;5046382;28;20045;-68
2022/12/04 02:02:21;;;;;;;58.90;35.75;;;;;;;;;;5044321;28;20051;-69
2022/12/04 02:04:48;;;;;;;60.63;34.78;;;;;;;;;;5042491;28;20053;-68
2022/12/04 02:07:14;;;;;;;63.38;36.88;;;;;;;;;;5046628;28;20134;-68
2022/12/04 02:09:40;;;;;;;64.43;36.22;;;;;;;;;;5046200;28;20041;-67
2022/12/04 02:12:17;;;;;;;61.88;34.47;;;;;;;;;;5043869;28;20069;-69
2022/12/04 02:15:02;;;;;;;60.67;35.17;;;;;;;;;;5045781;28;20045;-69
2022/12/04 02:17:31;;;;;;;60.92;35.30;;;;;;;;;;5038715;28;20045;-70
2022/12/04 02:20:03;;;;;;;59.67;35.53;;;;;;;;;;5045817;28;20123;-67
2022/12/04 02:22:32;;;;;;;62.53;36.97;;;;;;;;;;5044956;28;20511;-68
2022/12/04 02:25:05;;;;;;;62.28;36.22;;;;;;;;;;5047116;28;20036;-70
2022/12/04 02:27:40;;;;;;;64.03;36.33;;;;;;;;;;5044142;28;20049;-68
2022/12/04 02:30:06;;;;;;;61.55;35.33;;;;;;;;;;5045334;28;20044;-69
2022/12/04 02:32:32;;;;;;;62.70;37.17;;;;;;;;;;5028014;28;20043;-70
2022/12/04 02:35:01;;;;;;;60.60;35.30;;;;;;;;;;5045454;28;20052;-67
2022/12/04 02:37:32;;;;;;;61.85;36.95;;;;;;;;;;5045098;28;20124;-69
2022/12/04 02:40:07;;;;;;;61.88;36.38;;;;;;;;;;5043120;28;20081;-68
2022/12/04 02:42:45;;;;;;;69.15;37.53;;;;;;;;;;5044157;28;20044;-67
2022/12/04 02:45:13;;;;;;;63.20;36.70;;;;;;;;;;5045303;28;20041;-69
2022/12/04 02:47:40;;;;;;;67.78;37.40;;;;;;;;;;5043358;28;20099;-70
2022/12/04 02:50:08;;;;;;;61.78;36.10;;;;;;;;;;5044919;28;22015;-69
2022/12/04 02:52:46;;;;;;;61.40;36.08;;;;;;;;;;5042150;28;20043;-67
2022/12/04 02:55:15;;;;;;;63.15;36.40;;;;;;;;;;5043392;28;20245;-69
2022/12/04 02:57:43;;;;;;;64.35;38.10;;;;;;;;;;5045324;28;20504;-67
2022/12/04 03:00:10;;;;;;;62.15;36.40;;;;;;;;;;5045802;28;20095;-69
2022/12/04 03:02:44;;;;;;;65.03;37.58;;;;;;;;;;5044735;28;20055;-68
2022/12/04 03:05:12;;;;;;;66.53;37.20;;;;;;;;;;5043201;28;20055;-70
2022/12/04 03:07:41;;;;;;;63.33;35.97;;;;;;;;;;5046623;28;20046;-68
2022/12/04 03:10:09;;;;;;;69.97;38.90;;;;;;;;;;5041735;28;20045;-69
2022/12/04 03:12:45;;;;;;;63.55;36.30;;;;;;;;;;5045505;28;20055;-70
2022/12/04 03:15:28;;;;;;;61.45;37.08;;;;;;;;;;5041236;28;20049;-68
2022/12/04 03:18:03;;;;;;;64.45;37.90;;;;;;;;;;5042262;28;20056;-69
2022/12/04 03:20:31;;;;;;;60.85;36.55;;;;;;;;;;5033781;28;20045;-70
2022/12/04 03:23:06;;;;;;;67.10;38.05;;;;;;;;;;5042832;28;20045;-69
2022/12/04 03:25:34;;;;;;;66.97;38.10;;;;;;;;;;5043290;28;20458;-69
2022/12/04 03:28:03;;;;;;;62.60;38.30;;;;;;;;;;5044460;28;20129;-68
2022/12/04 03:30:32;;;;;;;67.20;38.08;;;;;;;;;;5045615;28;20035;-69
2022/12/04 03:33:02;;;;;;;62.60;37.83;;;;;;;;;;5043884;28;20400;-68
2022/12/04 03:35:44;;;;;;;64.35;37.22;;;;;;;;;;5044939;28;20044;-69
2022/12/04 03:38:30;;;;;;;65.07;38.30;;;;;;;;;;5042568;28;20060;-67
2022/12/04 03:41:02;;;;;;;66.53;38.15;;;;;;;;;;5024142;28;20045;-69
2022/12/04 03:43:31;;;;;;;68.00;37.30;;;;;;;;;;5042305;28;20055;-66
2022/12/04 03:46:15;;;;;;;64.80;38.05;;;;;;;;;;5044617;28;20057;-70
2022/12/04 03:48:51;;;;;;;64.22;38.03;;;;;;;;;;5042472;28;20134;-67
2022/12/04 03:51:27;;;;;;;61.17;37.78;;;;;;;;;;5042789;28;20178;-68
2022/12/04 03:53:59;;;;;;;71.65;38.80;;;;;;;;;;5043148;28;20044;-69
2022/12/04 03:56:33;;;;;;;66.90;38.15;;;;;;;;;;5042342;28;20200;-69
2022/12/04 03:59:06;;;;;;;64.53;38.38;;;;;;;;;;5045027;28;20452;-68
2022/12/04 04:01:34;;;;;;;63.13;38.17;;;;;;;;;;5040805;28;20083;-69
2022/12/04 04:04:04;;;;;;;65.50;37.60;;;;;;;;;;5043509;28;20049;-69
2022/12/04 04:06:32;;;;;;;64.32;38.05;;;;;;;;;;5044392;28;20045;-68
2022/12/04 04:09:00;;;;;;;68.10;37.95;;;;;;;;;;5042266;28;20101;-67
2022/12/04 04:11:40;;;;;;;67.72;39.03;;;;;;;;;;5042985;28;20095;-67
2022/12/04 04:25:27;;;;;;;64.88;37.97;;;;;;;;;;5039338;28;20073;-69
2022/12/04 04:27:54;;;;;;;65.40;38.78;;;;;;;;;;5043284;28;20057;-68
2022/12/04 04:30:20;;;;;;;59.88;36.08;;;;;;;;;;5040418;28;20068;-69
2022/12/04 04:33:05;;;;;;;63.65;38.05;;;;;;;;;;5042244;28;20056;-67
2022/12/04 04:35:52;;;;;;;66.10;37.35;;;;;;;;;;5041518;28;20467;-69
2022/12/04 04:38:25;;;;;;;69.95;39.08;;;;;;;;;;5040247;28;20510;-66
2022/12/04 04:41:18;;;;;;;70.57;39.03;;;;;;;;;;5039119;28;20500;-68
2022/12/04 04:43:50;;;;;;;54.50;31.08;;;;;;;;;;5039543;28;20053;-68
2022/12/04 04:46:16;;;;;;;;;;;;;;;;;;5040990;28;20052;-68
2022/12/04 04:48:44;;;;;;;63.85;37.13;;;;;;;;;;5041796;28;20314;-69
2022/12/04 04:51:10;;;;;;;69.65;38.33;;;;;;;;;;5042090;28;20049;-67
2022/12/04 04:53:40;;;;;;;65.13;38.33;;;;;;;;;;5041212;28;20551;-67
2022/12/04 04:56:07;;;;;;;70.55;40.00;;;;;;;;;;5045372;28;20508;-66
2022/12/04 04:58:33;;;;;;;70.28;40.10;;;;;;;;;;5042162;28;20047;-69
2022/12/04 05:01:01;;;;;;;70.65;40.55;;;;;;;;;;5043828;28;20227;-69
2022/12/04 05:03:27;;;;;;;66.97;40.50;;;;;;;;;;5043787;28;20045;-69
2022/12/04 05:05:53;;;;;;;71.65;39.25;;;;;;;;;;5042155;28;20056;-68
2022/12/04 05:08:19;;;;;;;73.10;40.65;;;;;;;;;;5042257;28;20052;-69
2022/12/04 05:10:45;;;;;;;66.55;39.67;;;;;;;;;;5039755;28;20041;-69
2022/12/04 05:13:12;;;;;;;68.80;39.40;;;;;;;;;;5039098;28;20055;-67
2022/12/04 05:15:39;;;;;;;69.25;38.92;;;;;;;;;;5039518;28;20049;-68
2022/12/04 05:18:05;;;;;;;68.95;40.67;;;;;;;;;;5025153;28;20044;-67
2022/12/04 05:20:31;;;;;;;70.68;39.88;;;;;;;;;;5043983;28;20100;-68
2022/12/04 05:22:57;;;;;;;67.28;39.30;;;;;;;;;;5045652;28;20044;-66
2022/12/04 05:25:23;;;;;;;67.72;39.10;;;;;;;;;;5045176;28;20049;-68
2022/12/04 05:27:49;;;;;;;67.57;38.95;;;;;;;;;;5046758;28;20061;-68
2022/12/04 05:30:15;;;;;;;68.88;38.47;;;;;;;;;;5044389;28;20075;-68
2022/12/04 05:32:41;;;;;;;71.65;38.33;;;;;;;;;;5046458;28;20036;-68
2022/12/04 05:35:07;;;;;;;72.30;39.65;;;;;;;;;;5046062;28;20052;-67
2022/12/04 05:37:37;;;;;;;71.15;38.05;;;;;;;;;;5042909;28;20537;-67
2022/12/04 05:40:04;;;;;;;67.63;39.58;;;;;;;;;;5044261;28;20056;-68
2022/12/04 05:42:30;;;;;;;66.95;38.10;;;;;;;;;;5044132;28;20419;-68
2022/12/04 05:44:56;;;;;;;66.60;38.63;;;;;;;;;;5046478;28;20048;-69
2022/12/04 05:47:22;;;;;;;71.72;39.97;;;;;;;;;;5040445;28;20053;-68
2022/12/04 05:49:48;;;;;;;67.68;38.00;;;;;;;;;;5043267;28;20084;-68
2022/12/04 05:52:14;;;;;;;66.47;38.10;;;;;;;;;;5046575;28;20041;-68
2022/12/04 05:54:40;;;;;;;70.45;39.72;;;;;;;;;;5046773;28;20040;-66
2022/12/04 05:57:06;;;;;;;65.07;36.25;;;;;;;;;;5047674;28;20072;-67
2022/12/04 05:59:32;;;;;;;65.40;37.25;;;;;;;;;;5044424;28;20065;-70
2022/12/04 06:01:58;;;;;;;69.20;38.60;;;;;;;;;;5045468;28;20060;-66
2022/12/04 06:04:24;;;;;;;68.82;38.15;;;;;;;;;;5047315;28;20509;-66
2022/12/04 06:06:50;;;;;;;66.70;37.63;;;;;;;;;;5046840;28;20051;-66
2022/12/04 06:09:16;;;;;;;65.18;36.17;;;;;;;;;;5045456;28;20090;-65
2022/12/04 06:11:42;;;;;;;66.30;39.30;;;;;;;;;;5042749;28;20060;-68
2022/12/04 06:14:10;;;;;;;63.65;37.53;;;;;;;;;;5046087;28;20052;-66
2022/12/04 06:16:38;;;;;;;66.97;37.53;;;;;;;;;;5044863;28;20044;-66
2022/12/04 06:19:05;;;;;;;66.35;36.80;;;;;;;;;;5043089;28;20049;-66
2022/12/04 06:21:32;;;;;;;61.42;36.83;;;;;;;;;;5043920;28;20064;-67
2022/12/04 06:23:58;;;;;;;64.07;35.97;;;;;;;;;;5044802;28;20519;-67
2022/12/04 06:26:25;;;;;;;63.90;37.80;;;;;;;;;;5040170;28;20045;-66
2022/12/04 06:28:55;;;;;;;62.72;36.90;;;;;;;;;;5046650;28;20097;-66
2022/12/04 06:31:21;;;;;;;62.42;36.63;;;;;;;;;;5042363;28;20044;-66
2022/12/04 06:33:47;;;;;;;64.15;36.92;;;;;;;;;;5045685;28;20044;-66
2022/12/04 06:36:17;;;;;;;63.83;36.75;;;;;;;;;;5043237;28;20048;-67
2022/12/04 06:38:43;;;;;;;62.90;36.67;;;;;;;;;;5044208;28;20056;-69
2022/12/04 06:41:12;;;;;;;62.22;35.58;;;;;;;;;;5045711;28;20124;-68
2022/12/04 06:43:38;;;;;;;61.78;36.13;;;;;;;;;;5045761;28;20053;-66
2022/12/04 06:46:06;;;;;;;67.38;37.13;;;;;;;;;;5045349;28;20118;-68
2022/12/04 06:48:32;;;;;;;65.85;35.97;;;;;;;;;;5042261;28;20171;-65
2022/12/04 06:51:05;;;;;;;62.10;36.03;;;;;;;;;;5043028;28;20052;-68
2022/12/04 06:53:32;;;;;;;66.07;37.15;;;;;;;;;;5045031;28;20041;-66
2022/12/04 06:55:59;;;;;;;68.93;37.20;;;;;;;;;;5043897;28;20060;-65
2022/12/04 06:58:25;;;;;;;64.05;36.13;;;;;;;;;;5043094;28;20101;-65
2022/12/04 07:00:51;;;;;;;67.10;37.45;;;;;;;;;;5041783;28;20582;-69
2022/12/04 07:03:17;;;;;;;66.55;36.92;;;;;;;;;;5044738;28;20045;-68
2022/12/04 07:05:43;;;;;;;65.43;37.53;;;;;;;;;;5044366;28;20069;-68
2022/12/04 07:08:09;;;;;;;59.20;34.97;;;;;;;;;;5043323;28;20048;-66
2022/12/04 07:10:36;;;;;;;66.22;37.25;;;;;;;;;;5043217;28;20078;-67
2022/12/04 07:13:02;;;;;;;66.38;37.88;;;;;;;;;;5042925;28;20087;-67
2022/12/04 07:15:28;;;;;;;66.65;37.00;;;;;;;;;;5044520;28;20048;-67
2022/12/04 07:17:54;;;;;;;64.13;36.13;;;;;;;;;;5041483;28;20082;-67
2022/12/04 07:20:20;;;;;;;67.57;37.35;;;;;;;;;;5044632;28;20052;-66
2022/12/04 07:22:46;;;;;;;69.95;38.22;;;;;;;;;;5043401;28;20407;-68
2022/12/04 07:25:12;;;;;;;64.35;37.00;;;;;;;;;;5042493;28;20496;-67
2022/12/04 07:27:38;;;;;;;68.60;37.47;;;;;;;;;;5043697;28;20052;-65
2022/12/04 07:30:05;;;;;;;69.53;38.45;;;;;;;;;;5044846;28;20041;-67
2022/12/04 07:32:31;;;;;;;69.25;38.88;;;;;;;;;;5042206;28;20081;-68
2022/12/04 07:35:00;;;;;;;65.47;37.88;;;;;;;;;;5043354;28;20033;-65
2022/12/04 07:37:26;;;;;;;71.03;38.88;;;;;;;;;;5044657;28;20568;-65
2022/12/04 07:39:52;;;;;;;71.10;38.20;;;;;;;;;;5043228;28;20123;-65
2022/12/04 07:42:19;;;;;;;68.53;38.72;;;;;;;;;;5042420;28;20098;-65
2022/12/04 07:44:45;;;;;;;69.30;38.28;;;;;;;;;;5043491;28;20049;-67
2022/12/04 07:47:11;;;;;;;67.40;37.55;;;;;;;;;;5045000;28;20079;-67
2022/12/04 07:49:37;;;;;;;73.18;39.72;;;;;;;;;;5043554;28;20492;-66
2022/12/04 07:52:03;;;;;;;69.47;38.08;;;;;;;;;;5042788;28;20073;-65
2022/12/04 07:54:30;;;;;;;71.75;38.35;;;;;;;;;;5027664;28;20041;-67
2022/12/04 07:56:56;;;;;;;69.95;38.17;;;;;;;;;;5044273;28;20141;-66
2022/12/04 07:59:22;;;;;;;71.68;39.42;;;;;;;;;;5042293;28;20171;-67
2022/12/04 08:01:48;;;;;;;70.40;38.35;;;;;;;;;;5042595;28;20151;-67
2022/12/04 08:04:14;;;;;;;71.05;38.45;;;;;;;;;;5040277;28;20131;-65
2022/12/04 08:06:40;;;;;;;70.15;38.67;;;;;;;;;;5026461;28;20049;-67
2022/12/04 08:09:06;;;;;;;70.07;38.13;;;;;;;;;;5041513;28;20056;-65
2022/12/04 08:11:33;;;;;;;72.07;38.58;;;;;;;;;;5038728;28;20090;-66
2022/12/04 08:14:00;;;;;;;70.18;39.15;;;;;;;;;;5042524;28;20044;-68
2022/12/04 08:16:27;;;;;;;70.03;37.03;;;;;;;;;;5041437;28;20040;-66
2022/12/04 08:18:53;;;;;;;69.75;39.35;;;;;;;;;;5043768;28;20044;-69
2022/12/04 08:21:20;;;;;;;76.32;39.70;;;;;;;;;;5039244;28;20061;-65
2022/12/04 08:23:47;;;;;;;76.93;40.33;;;;;;;;;;5042105;28;20040;-67
2022/12/04 08:26:13;;;;;;;75.00;39.72;;;;;;;;;;5040838;28;20449;-67
2022/12/04 08:28:40;;;;;;;78.22;43.72;;;;;;;;;;5040177;28;20075;-66
2022/12/04 08:31:12;;;;;;;77.25;39.50;;;;;;;;;;5046842;28;20061;-65
2022/12/04 08:33:38;;;;;;;72.32;39.35;;;;;;;;;;5047265;28;20071;-66
2022/12/04 08:36:08;;;;;;;71.05;38.55;;;;;;;;;;5049747;28;20061;-67
2022/12/04 08:38:34;;;;;;;71.72;38.33;;;;;;;;;;5039975;28;20715;-67
2022/12/04 08:41:02;;;;;;;72.72;38.38;;;;;;;;;;5040810;28;20448;-66
2022/12/04 08:43:28;;;;;;;70.65;39.35;;;;;;;;;;5041451;28;20048;-65
2022/12/04 08:45:55;;;;;;;73.50;39.60;;;;;;;;;;5038803;28;20588;-68
2022/12/04 08:48:21;;;;;;;74.93;39.28;;;;;;;;;;5037064;28;20046;-67
2022/12/04 08:50:47;;;;;;;75.95;38.15;;;;;;;;;;5039726;28;20138;-66
2022/12/04 08:53:13;;;;;;;78.57;39.67;;;;;;;;;;5040539;28;20048;-67
2022/12/04 08:55:39;;;;;;;73.35;39.92;;;;;;;;;;5045909;28;20045;-67
2022/12/04 08:58:05;;;;;;;72.82;39.53;;;;;;;;;;5043745;28;20053;-67
2022/12/04 09:00:31;;;;;;;73.55;39.17;;;;;;;;;;5043024;28;20049;-67
2022/12/04 09:02:57;;;;;;;73.03;39.15;;;;;;;;;;5049444;28;20508;-67
2022/12/04 09:05:23;;;;;;;74.43;39.50;;;;;;;;;;5033062;28;20045;-67
2022/12/04 09:07:49;;;;;;;73.38;38.80;;;;;;;;;;5047626;28;20550;-66
2022/12/04 09:10:15;;;;;;;73.82;39.33;;;;;;;;;;5049429;28;20052;-66
2022/12/04 09:12:41;;;;;;;75.80;39.03;;;;;;;;;;5049136;28;20068;-66
2022/12/04 09:15:07;;;;;;;74.63;39.90;;;;;;;;;;5046407;28;20387;-67
2022/12/04 09:17:35;;;;;;;77.32;40.83;;;;;;;;;;5038888;28;20051;-65
2022/12/04 09:20:01;;;;;;;76.40;39.03;;;;;;;;;;5045874;28;20045;-67
2022/12/04 09:22:27;;;;;;;81.22;41.13;;;;;;;;;;5031023;28;20069;-66
2022/12/04 09:24:53;;;;;;;73.97;39.75;;;;;;;;;;5044581;28;20084;-69
2022/12/04 09:27:19;;;;;;;81.45;41.60;;;;;;;;;;5043653;28;20044;-67
2022/12/04 09:29:45;;;;;;;74.95;39.88;;;;;;;;;;5052409;28;20110;-68
2022/12/04 09:32:11;;;;;;;70.88;39.63;;;;;;;;;;5049403;28;20037;-69
2022/12/04 09:34:37;;;;;;;78.35;39.65;;;;;;;;;;5041200;28;20077;-66
2022/12/04 09:37:03;;;;;;;80.07;42.28;;;;;;;;;;5043605;28;20757;-66
2022/12/04 09:39:29;;;;;;;72.03;38.67;;;;;;;;;;5046082;28;20051;-67
2022/12/04 09:42:02;;;;;;;79.80;39.33;;;;;;;;;;5047677;28;20110;-67
2022/12/04 09:44:44;;;;;;;73.60;40.22;;;;;;;;;;5048893;28;20038;-66
2022/12/04 09:47:22;;;;;;;76.00;38.25;;;;;;;;;;5047858;28;20499;-68
2022/12/04 09:49:54;;;;;;;76.40;38.67;;;;;;;;;;5050793;28;20045;-65
2022/12/04 09:52:33;;;;;;;71.55;38.88;;;;;;;;;;5048638;28;20052;-67
2022/12/04 09:55:00;;;;;;;78.47;41.28;;;;;;;;;;5043743;28;20073;-65
2022/12/04 09:57:35;;;;;;;69.53;38.50;;;;;;;;;;5040417;28;20155;-68
2022/12/04 10:00:03;;;;;;;72.65;38.65;;;;;;;;;;5037245;28;20507;-66
2022/12/04 10:02:37;;;;;;;77.88;39.22;;;;;;;;;;5039801;28;20056;-68
2022/12/04 10:05:04;;;;;;;73.10;38.95;;;;;;;;;;5038260;28;20562;-67
2022/12/04 10:07:39;;;;;;;70.45;38.75;;;;;;;;;;5042216;28;20045;-67
2022/12/04 10:10:15;;;;;;;79.28;41.10;;;;;;;;;;5044245;28;20044;-66
2022/12/04 10:12:53;;;;;;;78.65;38.88;;;;;;;;;;5043093;28;20079;-68
2022/12/04 10:15:25;;;;;;;73.85;39.30;;;;;;;;;;5030236;28;20040;-68
2022/12/04 10:17:51;;;;;;;70.68;39.45;;;;;;;;;;5042328;28;20047;-69
2022/12/04 10:20:34;;;;;;;67.82;38.90;;;;;;;;;;5040062;28;20049;-67
2022/12/04 10:23:09;;;;;;;68.93;39.13;;;;;;;;;;5038987;28;20052;-68
2022/12/04 10:25:37;;;;;;;69.53;38.90;;;;;;;;;;5042167;28;20059;-68
2022/12/04 10:28:15;;;;;;;65.40;36.22;;;;;;;;;;5039643;28;20155;-69
2022/12/04 10:30:42;;;;;;;66.00;36.20;;;;;;;;;;5038170;28;20045;-66
2022/12/04 10:33:44;;;;;;;65.72;36.38;;;;;;;;;;5046753;28;20041;-65
2022/12/04 10:36:12;;;;;;;64.53;36.10;;;;;;;;;;4965244;28;20043;-67
2022/12/04 10:38:55;;;;;;;65.65;35.08;;;;;;;;;;5024723;28;20036;-67
2022/12/04 10:41:28;;;;;;;60.17;34.60;;;;;;;;;;5042330;28;20068;-69
2022/12/04 10:43:55;;;;;;;62.53;35.45;;;;;;;;;;5038862;28;20065;-70
2022/12/04 10:46:26;;;;;;;63.10;35.28;;;;;;;;;;5035286;28;20067;-68
2022/12/04 10:48:57;;;;;;;61.40;35.00;;;;;;;;;;5037775;28;20758;-69
2022/12/04 10:51:23;;;;;;;57.42;33.88;;;;;;;;;;5038963;28;20128;-69
2022/12/04 10:53:50;;;;;;;59.72;34.30;;;;;;;;;;5041323;28;20131;-68
2022/12/04 10:56:21;;;;;;;57.67;33.78;;;;;;;;;;5040812;28;20060;-70
2022/12/04 10:59:01;;;;;;;59.40;33.13;;;;;;;;;;5041090;28;20044;-69
2022/12/04 11:01:29;;;;;;;57.67;33.65;;;;;;;;;;5040624;28;20045;-68
2022/12/04 11:04:03;;;;;;;55.33;32.70;;;;;;;;;;5038240;28;20064;-67
2022/12/04 11:06:29;;;;;;;52.92;32.53;;;;;;;;;;5036015;28;20662;-70
2022/12/04 11:08:56;;;;;;;54.15;32.08;;;;;;;;;;5038772;28;20048;-70
2022/12/04 11:11:23;;;;;;;54.67;31.85;;;;;;;;;;5044704;28;20113;-71
2022/12/04 11:13:59;;;;;;;53.88;31.95;;;;;;;;;;5046272;28;20091;-69
2022/12/04 11:16:33;;;;;;;52.08;31.65;;;;;;;;;;5048199;28;20047;-71
2022/12/04 11:18:59;;;;;;;52.03;30.33;;;;;;;;;;5036575;28;20040;-69
2022/12/04 11:21:27;;;;;;;54.00;30.75;;;;;;;;;;5039055;28;20040;-68
2022/12/04 11:23:53;;;;;;;50.78;30.83;;;;;;;;;;5039433;28;20048;-71
2022/12/04 11:26:30;;;;;;;50.38;29.98;;;;;;;;;;5040849;28;20455;-71
2022/12/04 11:29:00;;;;;;;47.67;28.33;;;;;;;;;;5035050;28;20060;-70
2022/12/04 11:31:26;;;;;;;46.58;28.20;;;;;;;;;;5039767;28;20037;-69
2022/12/04 11:33:58;;;;;;;47.72;29.88;;;;;;;;;;5040083;28;20065;-68
2022/12/04 11:36:26;;;;;;;45.85;28.50;;;;;;;;;;5037751;28;20045;-68
2022/12/04 11:38:53;;;;;;;47.03;27.80;;;;;;;;;;5033132;28;20042;-69
2022/12/04 11:41:28;;;;;;;45.42;27.77;;;;;;;;;;5040475;28;20045;-71
2022/12/04 11:43:54;;;;;;;45.25;27.55;;;;;;;;;;5039942;28;20076;-70
2022/12/04 11:46:22;;;;;;;42.45;26.38;;;;;;;;;;5038927;28;21383;-71
2022/12/04 11:48:48;;;;;;;41.15;25.00;;;;;;;;;;5040563;28;20500;-71
2022/12/04 11:51:14;;;;;;;38.90;23.88;;;;;;;;;;5037577;28;20060;-71
2022/12/04 11:53:49;;;;;;;38.30;24.08;;;;;;;;;;5038844;28;20734;-70
2022/12/04 11:56:28;;;;;;;38.70;24.58;;;;;;;;;;5034116;28;20423;-69
2022/12/04 11:59:10;;;;;;;34.92;21.95;;;;;;;;;;5035467;28;20044;-69
2022/12/04 12:01:39;;;;;;;35.03;22.85;;;;;;;;;;5033315;28;20052;-69
2022/12/04 12:04:19;;;;;;;33.33;21.38;;;;;;;;;;5039334;28;20500;-71
2022/12/04 12:07:04;;;;;;;36.95;21.15;;;;;;;;;;5040350;28;20049;-69
2022/12/04 12:09:42;;;;;;;33.53;21.48;;;;;;;;;;5039147;28;20449;-70
2022/12/04 12:12:11;;;;;;;34.70;22.08;;;;;;;;;;5033331;28;20033;-70
2022/12/04 12:14:58;;;;;;;34.20;21.52;;;;;;;;;;5036667;28;20175;-70
2022/12/04 12:17:45;;;;;;;33.85;21.67;;;;;;;;;;5034399;28;20110;-70
2022/12/04 12:20:11;;;;;;;35.90;22.85;;;;;;;;;;5017563;28;20060;-68
2022/12/04 12:22:58;;;;;;;35.28;22.15;;;;;;;;;;5036868;28;20676;-70
2022/12/04 12:25:32;;;;;;;34.30;21.70;;;;;;;;;;5038142;28;20041;-70
2022/12/04 12:27:58;;;;;;;36.17;22.58;;;;;;;;;;5036035;28;20538;-73
2022/12/04 12:30:25;;;;;;;38.83;23.83;;;;;;;;;;5018973;28;20042;-69
2022/12/04 12:33:07;;;;;;;35.05;22.38;;;;;;;;;;5031617;28;20045;-69
2022/12/04 12:36:00;;;;;;;34.70;22.40;;;;;;;;;;5040202;28;20315;-69
2022/12/04 12:38:34;;;;;;;34.38;21.70;;;;;;;;;;5035900;28;20056;-70
2022/12/04 12:41:11;;;;;;;35.53;20.13;;;;;;;;;;5037564;28;20124;-70
2022/12/04 12:43:38;;;;;;;33.55;21.23;;;;;;;;;;5036725;28;20403;-70
2022/12/04 12:46:14;;;;;;;34.45;21.48;;;;;;;;;;5042670;28;20132;-69
2022/12/04 12:48:43;;;;;;;35.75;22.00;;;;;;;;;;5038669;28;20468;-71
2022/12/04 12:51:18;;;;;;;33.60;21.75;;;;;;;;;;5042037;28;20119;-69
2022/12/04 12:53:47;;;;;;;35.03;21.00;;;;;;;;;;5041969;28;20047;-69
2022/12/04 12:56:13;;;;;;;35.80;22.58;;;;;;;;;;5039805;28;20045;-71
2022/12/04 12:58:48;;;;;;;35.20;21.95;;;;;;;;;;5034800;28;20123;-70
2022/12/04 13:01:24;;;;;;;35.30;22.52;;;;;;;;;;5019933;28;20037;-69
2022/12/04 13:04:02;;;;;;;34.75;21.90;;;;;;;;;;5034452;28;20049;-70
2022/12/04 13:06:38;;;;;;;38.13;23.38;;;;;;;;;;5036362;28;20132;-69
2022/12/04 13:09:05;;;;;;;43.47;22.80;;;;;;;;;;5036441;28;20052;-71
2022/12/04 13:11:31;;;;;;;150.60;34.75;;;;;;;;;;5037970;28;20547;-71
2022/12/04 13:13:59;;;;;;;129.30;33.72;;;;;;;;;;5042593;28;20044;-69
2022/12/04 13:16:33;;;;;;;251.40;48.72;;;;;;;;;;5035679;28;20037;-68
2022/12/04 13:19:14;;;;;;;54.13;23.35;;;;;;;;;;5037299;28;20060;-70
2022/12/04 13:21:59;;;;;;;95.22;29.25;;;;;;;;;;5034540;28;20044;-71
2022/12/04 13:24:31;;;;;;;52.38;24.05;;;;;;;;;;5036445;28;20148;-70
2022/12/04 13:27:08;;;;;;;40.80;22.50;;;;;;;;;;5022017;28;20048;-69
2022/12/04 13:29:52;;;;;;;43.25;22.38;;;;;;;;;;5035047;28;20072;-69
2022/12/04 13:32:31;;;;;;;37.72;22.85;;;;;;;;;;5034495;28;20044;-69
2022/12/04 13:35:06;;;;;;;38.42;21.90;;;;;;;;;;5035727;28;20043;-68
2022/12/04 13:37:47;;;;;;;32.00;19.67;;;;;;;;;;5038226;28;20044;-68
2022/12/04 13:40:28;;;;;;;31.38;20.23;;;;;;;;;;5023849;28;20041;-70
2022/12/04 13:43:13;;;;;;;32.58;20.92;;;;;;;;;;5039862;28;20045;-70
2022/12/04 13:45:39;;;;;;;35.25;20.30;;;;;;;;;;5040291;28;20105;-68
2022/12/04 13:48:06;;;;;;;31.05;21.10;;;;;;;;;;5041759;28;20110;-67
2022/12/04 13:50:36;;;;;;;36.83;21.48;;;;;;;;;;5041813;28;20044;-70
2022/12/04 13:53:02;;;;;;;31.10;19.88;;;;;;;;;;5037879;28;20052;-70
2022/12/04 13:55:30;;;;;;;32.22;19.98;;;;;;;;;;5037529;28;20095;-69
2022/12/04 13:58:01;;;;;;;30.13;19.30;;;;;;;;;;5041281;28;20119;-69
2022/12/04 14:00:30;;;;;;;30.92;19.35;;;;;;;;;;5042289;28;20051;-68
2022/12/04 14:02:58;;;;;;;32.38;19.70;;;;;;;;;;5042288;28;20052;-69
2022/12/04 14:05:43;;;;;;;32.42;20.13;;;;;;;;;;5037520;28;20130;-69
2022/12/04 14:08:18;;;;;;;32.25;21.00;;;;;;;;;;5037541;28;20415;-68
2022/12/04 14:10:45;;;;;;;33.17;21.02;;;;;;;;;;5041087;28;20048;-67
2022/12/04 14:13:22;;;;;;;34.00;20.80;;;;;;;;;;5039198;28;20084;-70
2022/12/04 14:16:02;;;;;;;36.03;21.83;;;;;;;;;;5024241;28;20895;-70
2022/12/04 14:18:28;;;;;;;34.58;21.20;;;;;;;;;;5037715;28;20041;-68
2022/12/04 14:20:59;;;;;;;35.10;22.45;;;;;;;;;;5042044;28;20112;-67
2022/12/04 14:23:32;;;;;;;37.05;22.13;;;;;;;;;;5042951;28;20124;-69
2022/12/04 14:25:58;;;;;;;36.20;22.73;;;;;;;;;;5040914;28;20069;-69
2022/12/04 14:28:28;;;;;;;39.45;23.27;;;;;;;;;;5041600;28;20419;-68
2022/12/04 14:31:06;;;;;;;37.80;23.65;;;;;;;;;;5041497;28;20079;-68
2022/12/04 14:33:32;;;;;;;36.42;22.25;;;;;;;;;;5040074;28;20048;-68
2022/12/04 14:36:01;;;;;;;39.00;23.95;;;;;;;;;;5041406;28;20091;-69
2022/12/04 14:38:27;;;;;;;36.42;23.50;;;;;;;;;;5039190;28;20047;-68
2022/12/04 14:40:58;;;;;;;39.60;24.23;;;;;;;;;;5035592;28;20522;-67
2022/12/04 14:43:29;;;;;;;41.78;24.42;;;;;;;;;;5038110;28;20086;-70